createdAt,value
2023-02-27T10:31:58.738Z,102455.09
2023-02-27T10:34:28.639Z,102446.06
2023-02-27T10:36:56.640Z,102452.22
2023-02-27T10:39:25.545Z,102454.53
2023-02-27T10:41:53.622Z,102453.31
2023-02-27T10:44:21.539Z,102453.34
2023-02-27T10:46:51.893Z,102465.78
2023-02-27T10:49:22.813Z,102470.41
2023-02-27T10:52:06.972Z,102473.66
2023-02-27T10:54:34.943Z,102471.13
2023-02-27T10:57:04.252Z,102468.19
2023-02-27T10:59:34.683Z,102464.53
2023-02-27T11:02:05.439Z,102468.88
2023-02-27T11:04:36.310Z,102469.22
2023-02-27T11:07:06.032Z,102464.56
2023-02-27T11:09:35.244Z,102470.84
2023-02-27T11:12:18.486Z,102459.28
2023-02-27T11:14:51.409Z,102452.19
2023-02-27T11:17:28.895Z,102460.56
2023-02-27T11:19:58.955Z,102444.22
2023-02-27T11:22:28.538Z,102446.25
2023-02-27T11:25:18.590Z,102453.69
2023-02-27T11:27:47.532Z,102463.97
2023-02-27T11:30:24.799Z,102451.38
2023-02-27T11:32:53.693Z,102451.94
2023-02-27T11:35:24.612Z,102451.41
2023-02-27T11:37:53.756Z,102453.06
2023-02-27T11:40:24.315Z,102448.97
2023-02-27T11:42:53.675Z,102455.88
2023-02-27T11:46:04.168Z,102455.13
2023-02-27T11:48:20.762Z,102450.78
2023-02-27T11:51:24.375Z,102445.56
2023-02-27T11:54:16.712Z,102441.53
2023-02-27T11:56:45.937Z,102443.94
2023-02-27T11:59:22.174Z,102445.25
2023-02-27T12:01:53.886Z,102442.44
2023-02-27T12:04:25.863Z,102441.13
2023-02-27T12:06:59.166Z,102443.31
2023-02-27T12:09:39.749Z,102448.84
2023-02-27T12:12:21.199Z,102440.53
2023-02-27T12:14:54.713Z,102445.16
2023-02-27T12:17:24.899Z,102438.13
2023-02-27T12:20:02.048Z,102429.47
2023-02-27T12:22:35.536Z,102436.50
2023-02-27T12:25:06.939Z,102433.53
2023-02-27T12:27:43.765Z,102436.44
2023-02-27T12:30:17.430Z,102427.44
2023-02-27T12:32:50.165Z,102438.50
2023-02-27T12:35:21.171Z,102435.16
2023-02-27T12:37:50.439Z,102433.00
2023-02-27T12:40:19.851Z,102435.84
2023-02-27T12:43:10.860Z,102443.81
2023-02-27T12:45:56.463Z,102440.97
2023-02-27T12:48:32.795Z,102446.38
2023-02-27T12:51:07.682Z,102449.66
2023-02-27T12:53:52.788Z,102450.22
2023-02-27T12:56:21.912Z,102445.84
2023-02-27T12:58:56.770Z,102436.53
2023-02-27T13:01:34.516Z,102445.00
2023-02-27T13:04:06.617Z,102442.31
2023-02-27T13:06:39.278Z,102442.44
2023-02-27T13:09:15.613Z,102438.00
2023-02-27T13:11:51.372Z,102447.66
2023-02-27T13:14:30.703Z,102449.13
2023-02-27T13:17:03.179Z,102443.13
2023-02-27T13:19:34.213Z,102446.13
2023-02-27T13:22:08.182Z,102435.34
2023-02-27T13:24:47.633Z,102441.31
2023-02-27T13:27:21.443Z,102439.47
2023-02-27T13:29:56.705Z,102439.56
2023-02-27T13:32:42.621Z,102432.47
2023-02-27T13:35:21.520Z,102437.97
2023-02-27T13:37:57.261Z,102436.38
2023-02-27T13:40:35.843Z,102438.25
2023-02-27T13:43:31.250Z,102433.97
2023-02-27T13:46:00.479Z,102431.53
2023-02-27T13:48:39.246Z,102435.41
2023-02-27T13:51:10.826Z,102438.59
2023-02-27T13:53:38.948Z,102432.44
2023-02-27T13:56:28.883Z,102439.41
2023-02-27T13:58:57.992Z,102440.66
2023-02-27T14:01:28.742Z,102439.84
2023-02-27T14:04:00.103Z,102439.97
2023-02-27T14:06:30.425Z,102442.88
2023-02-27T14:09:12.877Z,102430.44
2023-02-27T14:11:52.494Z,102440.56
2023-02-27T14:14:44.271Z,102442.78
2023-02-27T14:17:14.110Z,102432.47
2023-02-27T14:19:49.325Z,102437.75
2023-02-27T14:23:10.936Z,102437.88
2023-02-27T14:25:40.546Z,102439.78
2023-02-27T14:28:19.829Z,102450.34
2023-02-27T14:30:53.163Z,102450.00
2023-02-27T14:33:38.040Z,102450.66
2023-02-27T14:36:10.454Z,102455.00
2023-02-27T14:38:39.586Z,102452.91
2023-02-27T14:41:16.660Z,102462.44
2023-02-27T14:43:54.958Z,102461.63
2023-02-27T14:46:25.959Z,102461.34
2023-02-27T14:48:55.792Z,102463.72
2023-02-27T14:51:25.209Z,102470.81
2023-02-27T14:54:01.682Z,102469.94
2023-02-27T14:56:29.747Z,102468.63
2023-02-27T14:59:04.304Z,102467.09
2023-02-27T15:01:36.329Z,102470.19
2023-02-27T15:04:05.659Z,102472.97
2023-02-27T15:06:37.133Z,102473.97
2023-02-27T15:09:05.408Z,102472.84
2023-02-27T15:11:33.300Z,102473.94
2023-02-27T15:14:04.440Z,102474.88
2023-02-27T15:16:37.222Z,102475.31
2023-02-27T15:19:16.648Z,102473.34
2023-02-27T15:21:46.485Z,102476.63
2023-02-27T15:24:27.194Z,102473.19
2023-02-27T15:26:57.829Z,102475.69
2023-02-27T15:29:37.216Z,102476.94
2023-02-27T15:32:06.349Z,102472.81
2023-02-27T15:34:35.338Z,102474.81
2023-02-27T15:37:03.541Z,102471.97
2023-02-27T15:39:33.668Z,102480.28
2023-02-27T15:42:03.368Z,102481.38
2023-02-27T15:44:37.092Z,102481.44
2023-02-27T15:47:05.278Z,102486.50
2023-02-27T15:49:33.230Z,102488.91
2023-02-27T15:52:03.150Z,102488.44
2023-02-27T15:54:35.218Z,102491.13
2023-02-27T15:57:04.690Z,102491.47
2023-02-27T15:59:37.120Z,102493.75
2023-02-27T16:02:06.281Z,102496.13
2023-02-27T16:04:35.671Z,102499.22
2023-02-27T16:07:06.087Z,102501.00
2023-02-27T16:09:35.225Z,102502.00
2023-02-27T16:12:24.815Z,102503.16
2023-02-27T16:14:54.625Z,102507.56
2023-02-27T16:17:33.808Z,102513.38
2023-02-27T16:20:04.396Z,102495.81
2023-02-27T16:22:32.279Z,102497.59
2023-02-27T16:25:09.467Z,102503.03
2023-02-27T16:27:37.477Z,102503.88
2023-02-27T16:30:11.824Z,102508.22
2023-02-27T16:32:43.818Z,102516.78
2023-02-27T16:35:18.372Z,102522.84
2023-02-27T16:37:47.903Z,102530.81
2023-02-27T16:40:18.088Z,102521.19
2023-02-27T16:42:46.848Z,102520.06
2023-02-27T16:45:17.999Z,102522.84
2023-02-27T16:47:45.945Z,102524.81
2023-02-27T16:50:17.181Z,102525.84
2023-02-27T16:52:45.014Z,102527.63
2023-02-27T16:55:12.818Z,102522.97
2023-02-27T16:57:40.648Z,102525.25
2023-02-27T17:00:11.818Z,102525.47
2023-02-27T17:02:41.029Z,102529.66
2023-02-27T17:05:09.211Z,102526.47
2023-02-27T17:07:42.658Z,102523.97
2023-02-27T17:10:15.648Z,102528.25
2023-02-27T17:12:44.258Z,102533.56
2023-02-27T17:15:12.181Z,102530.94
2023-02-27T17:17:42.035Z,102535.28
2023-02-27T17:20:11.388Z,102533.63
2023-02-27T17:22:40.441Z,102530.03
2023-02-27T17:25:10.681Z,102530.94
2023-02-27T17:27:38.779Z,102539.75
2023-02-27T17:30:08.117Z,102532.72
2023-02-27T17:32:36.006Z,102534.50
2023-02-27T17:35:05.810Z,102537.81
2023-02-27T17:37:34.258Z,102548.50
2023-02-27T17:40:04.316Z,102541.59
2023-02-27T17:42:32.368Z,102541.59
2023-02-27T17:45:01.237Z,102549.41
2023-02-27T17:47:29.093Z,102546.59
2023-02-27T17:49:56.925Z,102544.78
2023-02-27T17:52:27.274Z,102552.78
2023-02-27T17:54:55.577Z,102547.56
2023-02-27T17:57:23.564Z,102551.19
2023-02-27T17:59:51.493Z,102544.28
2023-02-27T18:02:19.366Z,102544.41
2023-02-27T18:04:47.422Z,102542.78
2023-02-27T18:07:15.593Z,102549.81
2023-02-27T18:09:45.713Z,102549.88
2023-02-27T18:12:13.812Z,102551.69
2023-02-27T18:14:42.072Z,102543.00
2023-02-27T18:17:12.413Z,102550.03
2023-02-27T18:19:41.546Z,102546.59
2023-02-27T18:22:09.763Z,102551.00
2023-02-27T18:24:38.055Z,102552.91
2023-02-27T18:27:07.375Z,102547.72
2023-02-27T18:29:36.412Z,102554.69
2023-02-27T18:32:04.401Z,102547.72
2023-02-27T18:34:32.326Z,102553.84
2023-02-27T18:37:00.214Z,102557.38
2023-02-27T18:39:28.084Z,102564.41
2023-02-27T18:41:56.000Z,102568.75
2023-02-27T18:44:25.202Z,102567.78
2023-02-27T18:46:53.079Z,102560.94
2023-02-27T18:49:20.943Z,102560.19
2023-02-27T18:51:48.832Z,102566.53
2023-02-27T18:54:16.608Z,102563.16
2023-02-27T18:56:44.441Z,102570.50
2023-02-27T18:59:12.490Z,102575.91
2023-02-27T19:01:41.680Z,102567.28
2023-02-27T19:04:10.087Z,102580.44
2023-02-27T19:06:40.673Z,102577.00
2023-02-27T19:09:09.490Z,102579.69
2023-02-27T19:11:37.296Z,102575.38
2023-02-27T19:14:06.727Z,102580.56
2023-02-27T19:16:35.081Z,102587.59
2023-02-27T19:19:05.026Z,102585.81
2023-02-27T19:21:33.701Z,102580.56
2023-02-27T19:24:01.850Z,102578.84
2023-02-27T19:26:30.251Z,102585.88
2023-02-27T19:28:58.846Z,102577.25
2023-02-27T19:31:28.454Z,102584.22
2023-02-27T19:33:56.498Z,102585.94
2023-02-27T19:36:27.120Z,102579.81
2023-02-27T19:38:58.418Z,102586.84
2023-02-27T19:41:27.120Z,102584.28
2023-02-27T19:43:55.645Z,102587.75
2023-02-27T19:46:25.691Z,102588.50
2023-02-27T19:48:54.019Z,102586.84
2023-02-27T19:51:22.167Z,102592.22
2023-02-27T19:53:51.410Z,102594.84
2023-02-27T19:56:21.525Z,102589.75
2023-02-27T19:58:49.931Z,102588.09
2023-02-27T20:01:25.344Z,102589.81
2023-02-27T20:03:53.277Z,102593.34
2023-02-27T20:06:23.480Z,102587.34
2023-02-27T20:08:53.228Z,102590.91
2023-02-27T20:11:21.741Z,102595.16
2023-02-27T20:13:50.599Z,102595.41
2023-02-27T20:16:20.605Z,102597.25
2023-02-27T20:18:48.951Z,102594.56
2023-02-27T20:21:19.248Z,102599.00
2023-02-27T20:23:48.710Z,102595.50
2023-02-27T20:26:19.852Z,102600.00
2023-02-27T20:28:48.413Z,102595.78
2023-02-27T20:31:18.826Z,102592.53
2023-02-27T20:33:47.142Z,102595.16
2023-02-27T20:36:15.137Z,102597.00
2023-02-27T20:38:43.658Z,102594.38
2023-02-27T20:41:13.946Z,102591.75
2023-02-27T20:43:43.886Z,102590.88
2023-02-27T20:46:12.831Z,102595.09
2023-02-27T20:48:41.256Z,102597.50
2023-02-27T20:51:10.756Z,102598.53
2023-02-27T20:53:40.610Z,102594.25
2023-02-27T20:56:09.663Z,102595.03
2023-02-27T20:58:37.613Z,102598.47
2023-02-27T21:01:10.310Z,102601.91
2023-02-27T21:03:39.153Z,102601.78
2023-02-27T21:06:08.147Z,102606.22
2023-02-27T21:08:36.459Z,102606.41
2023-02-27T21:11:08.456Z,102607.88
2023-02-27T21:13:37.178Z,102608.06
2023-02-27T21:16:06.117Z,102603.72
2023-02-27T21:18:35.361Z,102603.94
2023-02-27T21:21:04.294Z,102600.47
2023-02-27T21:23:32.237Z,102607.44
2023-02-27T21:26:00.084Z,102599.50
2023-02-27T21:28:27.955Z,102605.50
2023-02-27T21:30:55.733Z,102604.75
2023-02-27T21:33:24.092Z,102603.16
2023-02-27T21:35:53.308Z,102596.06
2023-02-27T21:38:21.186Z,102599.69
2023-02-27T21:40:48.998Z,102602.13
2023-02-27T21:43:16.777Z,102605.66
2023-02-27T21:45:47.458Z,102603.41
2023-02-27T21:48:16.075Z,102606.03
2023-02-27T21:50:44.082Z,102615.78
2023-02-27T21:53:13.212Z,102601.75
2023-02-27T21:55:41.098Z,102606.09
2023-02-27T21:58:10.151Z,102600.16
2023-02-27T22:00:38.073Z,102604.59
2023-02-27T22:03:06.187Z,102602.84
2023-02-27T22:05:34.052Z,102604.44
2023-02-27T22:08:02.603Z,102599.25
2023-02-27T22:10:32.173Z,102607.31
2023-02-27T22:12:59.981Z,102610.94
2023-02-27T22:15:27.925Z,102610.09
2023-02-27T22:17:55.760Z,102612.78
2023-02-27T22:20:23.528Z,102619.09
2023-02-27T22:22:51.304Z,102612.09
2023-02-27T22:25:19.212Z,102607.03
2023-02-27T22:27:48.480Z,102605.38
2023-02-27T22:30:16.578Z,102614.16
2023-02-27T22:32:44.368Z,102615.22
2023-02-27T22:35:12.190Z,102612.09
2023-02-27T22:37:40.093Z,102614.66
2023-02-27T22:40:09.383Z,102615.50
2023-02-27T22:42:37.219Z,102616.28
2023-02-27T22:45:07.506Z,102623.94
2023-02-27T22:47:35.480Z,102621.63
2023-02-27T22:50:04.069Z,102617.28
2023-02-27T22:52:31.914Z,102621.84
2023-02-27T22:55:00.423Z,102622.63
2023-02-27T22:57:28.327Z,102629.66
2023-02-27T22:59:58.244Z,102627.94
2023-02-27T23:02:33.189Z,102627.03
2023-02-27T23:05:01.166Z,102625.94
2023-02-27T23:07:28.982Z,102631.25
2023-02-27T23:09:56.796Z,102631.19
2023-02-27T23:12:27.091Z,102636.59
2023-02-27T23:14:55.300Z,102644.38
2023-02-27T23:17:23.111Z,102642.59
2023-02-27T23:19:52.306Z,102638.31
2023-02-27T23:22:20.111Z,102640.13
2023-02-27T23:24:47.908Z,102641.34
2023-02-27T23:27:25.954Z,102643.78
2023-02-27T23:29:55.085Z,102643.72
2023-02-27T23:32:23.040Z,102642.06
2023-02-27T23:34:52.274Z,102655.97
2023-02-27T23:37:20.170Z,102649.81
2023-02-27T23:39:47.976Z,102651.44
2023-02-27T23:42:33.132Z,102655.78
2023-02-27T23:45:00.861Z,102650.63
2023-02-27T23:47:44.202Z,102654.91
2023-02-27T23:50:13.626Z,102659.19
2023-02-27T23:52:41.515Z,102659.34
2023-02-27T23:55:10.063Z,102652.34
2023-02-27T23:57:37.970Z,102659.41
